createdAt,value
2023-10-13T00:02:06.171Z,100447.13
2023-10-13T00:04:37.026Z,100444.66
2023-10-13T00:07:09.776Z,100451.78
2023-10-13T00:09:40.746Z,100442.56
2023-10-13T00:12:24.496Z,100448.72
2023-10-13T00:14:52.307Z,100439.00
2023-10-13T00:17:26.094Z,100444.06
2023-10-13T00:19:54.337Z,100438.88
2023-10-13T00:22:23.868Z,100452.03
2023-10-13T00:24:52.833Z,100438.63
2023-10-13T00:27:31.855Z,100447.25
2023-10-13T00:30:34.217Z,100434.94
2023-10-13T00:33:02.718Z,100436.91
2023-10-13T00:35:37.612Z,100439.13
2023-10-13T00:38:13.585Z,100433.72
2023-10-13T00:40:43.387Z,100425.59
2023-10-13T00:43:21.032Z,100438.75
2023-10-13T00:46:09.086Z,100427.31
2023-10-13T00:48:44.400Z,100420.81
2023-10-13T00:51:32.971Z,100428.50
2023-10-13T00:54:12.439Z,100422.38
2023-10-13T00:56:47.981Z,100425.09
2023-10-13T00:59:17.364Z,100426.09
2023-10-13T01:01:45.357Z,100421.75
2023-10-13T01:04:14.254Z,100419.19
2023-10-13T01:06:42.279Z,100419.56
2023-10-13T01:09:17.837Z,100418.69
2023-10-13T01:11:56.260Z,100417.69
2023-10-13T01:14:28.609Z,100413.78
2023-10-13T01:16:59.625Z,100418.06
2023-10-13T01:19:28.955Z,100407.63
2023-10-13T01:22:05.115Z,100404.91
2023-10-13T01:24:35.952Z,100403.47
2023-10-13T01:27:20.817Z,100403.47
2023-10-13T01:29:51.755Z,100383.78
2023-10-13T01:32:22.437Z,100397.03
2023-10-13T01:34:56.447Z,100386.66
2023-10-13T01:37:24.684Z,100394.94
2023-10-13T01:39:52.559Z,100395.78
2023-10-13T01:42:25.314Z,100394.06
2023-10-13T01:44:59.069Z,100383.59
2023-10-13T01:47:29.147Z,100378.44
2023-10-13T01:49:59.491Z,100374.25
2023-10-13T01:52:28.608Z,100368.25
2023-10-13T01:54:58.866Z,100371.91
2023-10-13T01:57:27.346Z,100365.03
2023-10-13T01:59:58.013Z,100363.44
2023-10-13T02:02:31.865Z,100347.81
2023-10-13T02:05:02.355Z,100362.94
2023-10-13T02:07:35.671Z,100349.28
2023-10-13T02:10:07.460Z,100362.44
2023-10-13T02:12:44.528Z,100357.25
2023-10-13T02:15:23.572Z,100352.81
2023-10-13T02:17:56.084Z,100347.78
2023-10-13T02:20:26.481Z,100332.19
2023-10-13T02:22:54.699Z,100350.75
2023-10-13T02:25:44.110Z,100337.69
2023-10-13T02:28:15.696Z,100344.22
2023-10-13T02:30:49.884Z,100347.25
2023-10-13T02:33:30.833Z,100357.34
2023-10-13T02:36:08.392Z,100350.84
2023-10-13T02:38:46.954Z,100330.19
2023-10-13T02:41:41.233Z,100329.56
2023-10-13T02:44:11.437Z,100328.84
2023-10-13T02:46:41.293Z,100322.56
2023-10-13T02:49:12.554Z,100316.53
2023-10-13T02:51:43.273Z,100315.06
2023-10-13T02:54:12.568Z,100313.31
2023-10-13T02:56:58.884Z,100317.22
2023-10-13T02:59:41.700Z,100314.00
2023-10-13T03:02:19.463Z,100318.78
2023-10-13T03:04:51.322Z,100315.47
2023-10-13T03:07:24.927Z,100302.22
2023-10-13T03:09:53.398Z,100313.41
2023-10-13T03:12:21.477Z,100325.22
2023-10-13T03:14:49.295Z,100305.91
2023-10-13T03:17:19.860Z,100302.22
2023-10-13T03:19:51.656Z,100301.50
2023-10-13T03:22:31.240Z,100307.84
2023-10-13T03:25:07.855Z,100305.63
2023-10-13T03:28:02.637Z,100304.66
2023-10-13T03:30:42.700Z,100293.47
2023-10-13T03:33:15.483Z,100288.53
2023-10-13T03:35:43.708Z,100302.41
2023-10-13T03:38:18.446Z,100302.53
2023-10-13T03:40:58.135Z,100294.56
2023-10-13T03:43:25.950Z,100302.75
2023-10-13T03:46:01.672Z,100295.00
2023-10-13T03:48:30.252Z,100286.31
2023-10-13T03:51:11.493Z,100292.78
2023-10-13T03:53:56.331Z,100295.47
2023-10-13T03:56:33.105Z,100298.31
2023-10-13T03:59:07.036Z,100290.00
2023-10-13T04:01:44.553Z,100281.78
2023-10-13T04:04:16.214Z,100280.78
2023-10-13T04:06:47.095Z,100288.78
2023-10-13T04:09:31.755Z,100285.00
2023-10-13T04:12:03.627Z,100280.69
2023-10-13T04:15:01.004Z,100276.91
2023-10-13T04:17:29.122Z,100264.94
2023-10-13T04:20:08.446Z,100279.59
2023-10-13T04:22:50.724Z,100269.66
2023-10-13T04:25:38.656Z,100273.47
2023-10-13T04:28:14.648Z,100265.38
2023-10-13T04:30:56.326Z,100271.50
2023-10-13T04:33:32.927Z,100253.94
2023-10-13T04:36:29.489Z,100251.88
2023-10-13T04:39:06.165Z,100251.44
2023-10-13T04:41:44.177Z,100248.75
2023-10-13T04:44:30.967Z,100241.75
2023-10-13T04:47:00.874Z,100227.25
2023-10-13T04:49:50.877Z,100230.78
2023-10-13T04:52:38.840Z,100221.22
2023-10-13T04:55:26.533Z,100228.44
2023-10-13T04:58:11.506Z,100240.44
2023-10-13T05:00:59.559Z,100245.09
2023-10-13T05:03:54.651Z,100245.31
2023-10-13T05:06:41.344Z,100230.31
2023-10-13T05:09:27.871Z,100229.59
2023-10-13T05:12:14.536Z,100241.22
2023-10-13T05:15:00.968Z,100239.41
2023-10-13T05:17:47.839Z,100234.47
2023-10-13T05:20:34.363Z,100240.84
2023-10-13T05:23:20.570Z,100234.16
2023-10-13T05:26:07.103Z,100229.78
2023-10-13T05:29:28.404Z,100245.94
2023-10-13T05:32:13.793Z,100244.88
2023-10-13T05:35:00.349Z,100247.03
2023-10-13T05:37:47.056Z,100248.00
2023-10-13T05:40:33.472Z,100245.31
2023-10-13T05:43:19.807Z,100246.41
2023-10-13T05:46:06.556Z,100249.44
2023-10-13T05:48:52.886Z,100246.22
2023-10-13T05:51:39.349Z,100242.53
2023-10-13T05:54:16.284Z,100234.78
2023-10-13T05:57:09.610Z,100237.72
2023-10-13T05:59:57.744Z,100238.03
2023-10-13T06:02:44.503Z,100232.31
2023-10-13T06:05:32.952Z,100238.78
2023-10-13T06:08:19.780Z,100239.84
2023-10-13T06:11:08.213Z,100228.00
2023-10-13T06:13:54.746Z,100234.69
2023-10-13T06:16:41.524Z,100233.16
2023-10-13T06:19:28.447Z,100235.13
2023-10-13T06:22:14.808Z,100231.66
2023-10-13T06:25:01.351Z,100230.78
2023-10-13T06:27:47.953Z,100239.63
2023-10-13T06:30:15.843Z,100236.06
2023-10-13T06:32:43.663Z,100231.00
2023-10-13T06:35:24.078Z,100244.59
2023-10-13T06:37:52.890Z,100235.88
2023-10-13T06:40:27.160Z,100234.56
2023-10-13T06:43:13.565Z,100237.16
2023-10-13T06:45:51.806Z,100236.28
2023-10-13T06:48:21.680Z,100231.03
2023-10-13T06:50:50.539Z,100234.13
2023-10-13T06:53:18.353Z,100235.53
2023-10-13T06:55:47.990Z,100236.97
2023-10-13T06:58:18.759Z,100236.31
2023-10-13T07:00:54.219Z,100236.06
2023-10-13T07:03:23.733Z,100233.72
2023-10-13T07:05:52.985Z,100229.72
2023-10-13T07:08:21.086Z,100217.44
2023-10-13T07:10:50.155Z,100234.66
2023-10-13T07:13:18.350Z,100224.84
2023-10-13T07:15:47.179Z,100228.81
2023-10-13T07:18:20.320Z,100235.25
2023-10-13T07:20:48.270Z,100235.09
2023-10-13T07:23:19.113Z,100233.03
2023-10-13T07:26:03.907Z,100235.94
2023-10-13T07:28:37.149Z,100228.56
2023-10-13T07:31:05.325Z,100238.16
2023-10-13T07:33:33.159Z,100227.78
2023-10-13T07:36:32.394Z,100230.66
2023-10-13T07:39:23.510Z,100237.56
2023-10-13T07:41:55.684Z,100241.91
2023-10-13T07:44:26.106Z,100243.97
2023-10-13T07:47:01.274Z,100244.84
2023-10-13T07:49:37.780Z,100236.72
2023-10-13T07:52:23.965Z,100235.78
2023-10-13T07:55:13.115Z,100238.91
2023-10-13T07:58:00.080Z,100236.59
2023-10-13T08:00:39.801Z,100227.16
2023-10-13T08:03:16.865Z,100233.56
2023-10-13T08:06:08.121Z,100230.81
2023-10-13T08:08:39.389Z,100221.09
2023-10-13T08:11:24.097Z,100214.63
2023-10-13T08:14:35.390Z,100220.41
2023-10-13T08:17:13.123Z,100221.28
2023-10-13T08:19:41.942Z,100225.09
2023-10-13T08:22:19.866Z,100220.81
2023-10-13T08:24:52.957Z,100210.28
2023-10-13T08:27:36.449Z,100202.66
2023-10-13T08:30:27.485Z,100208.78
2023-10-13T08:32:55.789Z,100198.31
2023-10-13T08:35:44.841Z,100200.91
2023-10-13T08:38:29.965Z,100202.84
2023-10-13T08:41:02.896Z,100191.00
2023-10-13T08:43:44.165Z,100187.44
2023-10-13T08:46:25.872Z,100194.94
2023-10-13T08:49:16.786Z,100196.47
2023-10-13T08:51:45.602Z,100199.66
2023-10-13T08:54:34.913Z,100202.78
2023-10-13T08:57:22.580Z,100199.44
2023-10-13T08:59:56.488Z,100187.78
2023-10-13T09:02:44.561Z,100188.63
2023-10-13T09:05:31.841Z,100190.25
2023-10-13T09:08:10.188Z,100181.56
2023-10-13T09:11:06.831Z,100175.09
2023-10-13T09:13:47.175Z,100176.84
2023-10-13T09:16:34.930Z,100176.44
2023-10-13T09:19:06.312Z,100171.06
2023-10-13T09:21:43.689Z,100178.31
2023-10-13T09:24:23.092Z,100186.56
2023-10-13T09:26:56.961Z,100175.00
2023-10-13T09:29:26.119Z,100173.19
2023-10-13T09:32:05.447Z,100159.63
2023-10-13T09:34:36.161Z,100165.38
2023-10-13T09:37:05.448Z,100153.09
2023-10-13T09:39:53.794Z,100160.97
2023-10-13T09:42:24.891Z,100150.25
2023-10-13T09:44:53.280Z,100134.97
2023-10-13T09:47:38.025Z,100138.44
2023-10-13T09:50:24.969Z,100129.44
2023-10-13T09:52:54.732Z,100126.00
2023-10-13T09:55:36.027Z,100118.97
2023-10-13T09:58:12.047Z,100123.13
2023-10-13T10:01:11.592Z,100116.66
2023-10-13T10:03:52.673Z,100111.94
2023-10-13T10:06:40.454Z,100110.19
2023-10-13T10:09:14.452Z,100102.47
2023-10-13T10:12:19.552Z,100097.41
2023-10-13T10:15:44.779Z,100106.53
2023-10-13T10:18:26.619Z,100101.38
2023-10-13T10:21:08.840Z,100102.88
2023-10-13T10:23:37.569Z,100107.72
2023-10-13T10:26:21.196Z,100099.22
2023-10-13T10:28:50.270Z,100084.59
2023-10-13T10:31:20.937Z,100093.19
2023-10-13T10:33:52.154Z,100083.66
2023-10-13T10:36:33.102Z,100080.00
2023-10-13T10:39:01.115Z,100085.84
2023-10-13T10:41:44.848Z,100081.88
2023-10-13T10:44:35.455Z,100088.56
2023-10-13T10:47:38.284Z,100091.53
2023-10-13T10:50:20.301Z,100076.59
2023-10-13T10:52:48.672Z,100081.28
2023-10-13T10:55:21.955Z,100068.41
2023-10-13T10:58:02.541Z,100071.53
2023-10-13T11:00:42.878Z,100056.66
2023-10-13T11:03:12.570Z,100068.50
2023-10-13T11:05:47.999Z,100061.75
2023-10-13T11:08:44.843Z,100056.38
2023-10-13T11:11:18.922Z,100049.03
2023-10-13T11:13:53.045Z,100045.06
2023-10-13T11:16:25.673Z,100035.50
2023-10-13T11:19:06.226Z,100035.41
2023-10-13T11:21:34.029Z,100035.41
2023-10-13T11:24:10.261Z,100033.94
2023-10-13T11:26:51.137Z,100032.09
2023-10-13T11:29:20.670Z,100016.94
2023-10-13T11:32:00.139Z,100016.31
2023-10-13T11:34:40.577Z,100004.56
2023-10-13T11:37:27.522Z,100003.88
2023-10-13T11:39:56.113Z,100004.28
2023-10-13T11:42:23.881Z,99993.84
2023-10-13T11:45:11.597Z,100003.63
2023-10-13T11:47:49.540Z,99998.69
2023-10-13T11:50:33.356Z,100001.78
2023-10-13T11:53:02.089Z,99989.50
2023-10-13T11:55:29.939Z,99980.63
2023-10-13T11:58:00.477Z,99980.31
2023-10-13T12:00:48.340Z,99972.13
2023-10-13T12:03:34.740Z,99961.03
2023-10-13T12:06:28.694Z,99965.31
2023-10-13T12:08:59.907Z,99959.84
2023-10-13T12:11:33.984Z,99952.16
2023-10-13T12:14:17.800Z,99953.03
2023-10-13T12:16:50.160Z,99948.56
2023-10-13T12:19:24.551Z,99952.66
2023-10-13T12:21:56.450Z,99949.59
2023-10-13T12:24:37.482Z,99948.25
2023-10-13T12:27:20.014Z,99932.88
2023-10-13T12:29:49.290Z,99940.72
2023-10-13T12:32:23.373Z,99920.59
2023-10-13T12:35:00.626Z,99933.72
2023-10-13T12:37:44.641Z,99915.63
2023-10-13T12:40:37.548Z,99918.03
2023-10-13T12:43:25.336Z,99916.31
2023-10-13T12:46:12.156Z,99915.47
2023-10-13T12:48:58.732Z,99918.56
2023-10-13T12:51:35.742Z,99912.94
2023-10-13T12:54:06.892Z,99911.91
2023-10-13T12:56:35.657Z,99906.44
2023-10-13T12:59:10.068Z,99903.88
2023-10-13T13:01:43.203Z,99902.16
2023-10-13T13:04:33.176Z,99895.47
2023-10-13T13:07:01.114Z,99894.97
2023-10-13T13:09:28.886Z,99885.59
2023-10-13T13:11:59.967Z,99887.63
2023-10-13T13:14:30.758Z,99877.78
2023-10-13T13:17:07.903Z,99876.69
2023-10-13T13:19:42.127Z,99887.44
2023-10-13T13:22:13.665Z,99886.06
2023-10-13T13:24:45.847Z,99873.56
2023-10-13T13:27:25.593Z,99850.00
2023-10-13T13:29:55.597Z,99870.31
2023-10-13T13:32:25.347Z,99846.03
2023-10-13T13:35:06.500Z,99847.38
2023-10-13T13:37:34.823Z,99845.34
2023-10-13T13:40:15.828Z,99844.81
2023-10-13T13:42:44.536Z,99824.38
2023-10-13T13:45:23.644Z,99827.91
2023-10-13T13:47:54.696Z,99821.41
2023-10-13T13:50:29.980Z,99827.03
2023-10-13T13:52:59.188Z,99822.59
2023-10-13T13:55:32.363Z,99806.03
2023-10-13T13:58:00.169Z,99800.00
2023-10-13T14:00:43.792Z,99800.72
2023-10-13T14:03:32.231Z,99804.47
2023-10-13T14:06:04.634Z,99795.72
2023-10-13T14:08:32.378Z,99792.31
2023-10-13T14:11:18.648Z,99786.19
2023-10-13T14:13:57.091Z,99793.16
2023-10-13T14:16:25.187Z,99783.25
2023-10-13T14:18:53.465Z,99781.69
2023-10-13T14:21:25.232Z,99783.22
2023-10-13T14:23:54.676Z,99765.09
2023-10-13T14:26:26.489Z,99767.28
2023-10-13T14:29:09.425Z,99761.81
2023-10-13T14:31:38.194Z,99758.94
2023-10-13T14:34:06.255Z,99764.00
2023-10-13T14:36:37.323Z,99753.25
2023-10-13T14:39:10.311Z,99751.31
2023-10-13T14:41:39.028Z,99758.06
2023-10-13T14:44:08.187Z,99745.56
2023-10-13T14:46:37.052Z,99742.81
2023-10-13T14:49:05.028Z,99740.38
2023-10-13T14:51:33.175Z,99746.03
2023-10-13T14:54:01.049Z,99728.41
2023-10-13T14:56:29.062Z,99727.22
2023-10-13T14:58:57.032Z,99721.16
2023-10-13T15:01:28.347Z,99721.44
2023-10-13T15:03:56.462Z,99708.28
2023-10-13T15:06:30.355Z,99705.66
2023-10-13T15:09:00.630Z,99711.63
2023-10-13T15:11:44.129Z,99701.72
2023-10-13T15:14:15.518Z,99694.72
2023-10-13T15:16:44.513Z,99694.34
2023-10-13T15:19:13.569Z,99685.63
2023-10-13T15:21:41.802Z,99695.22
2023-10-13T15:24:26.936Z,99689.41
2023-10-13T15:27:04.131Z,99690.81
2023-10-13T15:29:38.466Z,99679.41
2023-10-13T15:32:27.468Z,99662.03
2023-10-13T15:34:57.017Z,99678.00
2023-10-13T15:37:26.721Z,99676.66
2023-10-13T15:39:55.937Z,99668.03
2023-10-13T15:42:23.668Z,99675.03
2023-10-13T15:44:52.205Z,99664.13
2023-10-13T15:48:02.310Z,99661.13
2023-10-13T15:50:08.271Z,99661.50
2023-10-13T15:52:36.129Z,99660.16
2023-10-13T15:55:05.438Z,99659.63
2023-10-13T15:57:37.411Z,99648.41
2023-10-13T16:00:24.114Z,99648.28
2023-10-13T16:02:58.329Z,99646.75
2023-10-13T16:05:35.783Z,99649.19
2023-10-13T16:08:04.747Z,99647.53
2023-10-13T16:10:32.518Z,99656.13
2023-10-13T16:13:00.386Z,99650.50
2023-10-13T16:15:28.252Z,99643.03
2023-10-13T16:17:56.285Z,99641.03
2023-10-13T16:20:25.919Z,99637.16
2023-10-13T16:22:53.735Z,99638.84
2023-10-13T16:25:25.268Z,99628.16
2023-10-13T16:27:53.146Z,99622.56
2023-10-13T16:30:21.220Z,99624.78
2023-10-13T16:32:50.482Z,99624.66
2023-10-13T16:35:19.113Z,99621.78
2023-10-13T16:37:51.568Z,99618.25
2023-10-13T16:40:21.492Z,99610.09
2023-10-13T16:42:50.696Z,99626.81
2023-10-13T16:45:21.821Z,99618.78
2023-10-13T16:47:55.719Z,99629.88
2023-10-13T16:50:23.588Z,99619.88
2023-10-13T16:52:51.330Z,99623.28
2023-10-13T16:55:20.947Z,99627.53
2023-10-13T16:57:52.531Z,99621.94
2023-10-13T17:00:26.852Z,99619.91
2023-10-13T17:02:56.358Z,99616.16
2023-10-13T17:05:28.738Z,99630.69
2023-10-13T17:08:00.771Z,99618.72
2023-10-13T17:10:32.931Z,99616.88
2023-10-13T17:13:03.159Z,99620.94
2023-10-13T17:15:37.118Z,99617.03
2023-10-13T17:18:07.145Z,99619.41
2023-10-13T17:20:40.416Z,99617.22
2023-10-13T17:23:09.491Z,99620.94
2023-10-13T17:25:37.925Z,99615.31
2023-10-13T17:28:15.701Z,99625.16
2023-10-13T17:30:46.438Z,99620.50
2023-10-13T17:33:16.514Z,99618.28
2023-10-13T17:35:46.499Z,99612.81
2023-10-13T17:38:14.328Z,99609.19
2023-10-13T17:40:42.097Z,99609.88
2023-10-13T17:43:09.874Z,99604.06
2023-10-13T17:45:37.874Z,99608.13
2023-10-13T17:48:07.657Z,99592.75
2023-10-13T17:50:37.658Z,99596.00
2023-10-13T17:53:05.378Z,99599.06
2023-10-13T17:55:33.973Z,99604.66
2023-10-13T17:58:01.926Z,99604.00
2023-10-13T18:00:29.720Z,99606.53
2023-10-13T18:02:57.622Z,99598.56
2023-10-13T18:05:25.354Z,99589.84
2023-10-13T18:07:53.304Z,99590.88
2023-10-13T18:10:21.105Z,99589.38
2023-10-13T18:12:48.813Z,99589.38
2023-10-13T18:15:19.233Z,99587.31
2023-10-13T18:17:47.344Z,99579.34
2023-10-13T18:20:21.754Z,99578.13
2023-10-13T18:22:49.538Z,99569.47
2023-10-13T18:25:25.138Z,99569.97
2023-10-13T18:27:53.371Z,99575.59
2023-10-13T18:30:23.136Z,99570.81
2023-10-13T18:32:52.039Z,99559.78
2023-10-13T18:35:19.999Z,99565.75
2023-10-13T18:37:48.393Z,99568.28
2023-10-13T18:40:17.203Z,99570.31
2023-10-13T18:42:49.180Z,99569.47
2023-10-13T18:45:23.979Z,99569.47
2023-10-13T18:47:53.692Z,99569.25
2023-10-13T18:50:25.096Z,99570.78
2023-10-13T18:52:53.969Z,99571.69
2023-10-13T18:55:21.852Z,99577.31
2023-10-13T18:57:49.592Z,99553.19
2023-10-13T19:00:23.623Z,99570.88
2023-10-13T19:02:54.986Z,99575.63
2023-10-13T19:05:22.853Z,99556.22
2023-10-13T19:07:51.456Z,99558.75
2023-10-13T19:10:19.721Z,99566.41
2023-10-13T19:12:51.347Z,99550.59
2023-10-13T19:15:19.424Z,99567.75
2023-10-13T19:17:47.623Z,99554.47
2023-10-13T19:20:18.148Z,99558.22
2023-10-13T19:22:53.981Z,99558.00
2023-10-13T19:25:26.615Z,99557.00
2023-10-13T19:27:54.777Z,99574.44
2023-10-13T19:30:22.748Z,99559.25
2023-10-13T19:32:52.065Z,99566.38
2023-10-13T19:35:22.391Z,99557.84
2023-10-13T19:37:50.966Z,99561.75
2023-10-13T19:40:18.835Z,99565.31
2023-10-13T19:42:46.548Z,99545.94
2023-10-13T19:45:14.596Z,99549.03
2023-10-13T19:47:45.169Z,99554.16
2023-10-13T19:50:20.421Z,99556.00
2023-10-13T19:52:48.372Z,99556.00
2023-10-13T19:55:19.120Z,99559.06
2023-10-13T19:57:47.317Z,99553.81
2023-10-13T20:00:21.397Z,99558.94
2023-10-13T20:02:53.451Z,99549.22
2023-10-13T20:05:21.974Z,99557.06
2023-10-13T20:07:50.516Z,99546.69
2023-10-13T20:10:18.452Z,99562.34
2023-10-13T20:12:46.513Z,99558.22
2023-10-13T20:15:17.772Z,99552.97
2023-10-13T20:17:45.972Z,99562.41
2023-10-13T20:20:17.733Z,99557.56
2023-10-13T20:22:46.454Z,99542.28
2023-10-13T20:25:15.425Z,99543.72
2023-10-13T20:27:44.463Z,99548.84
2023-10-13T20:30:13.594Z,99549.75
2023-10-13T20:32:41.409Z,99546.53
2023-10-13T20:35:09.326Z,99548.75
2023-10-13T20:37:37.073Z,99544.38
2023-10-13T20:40:19.578Z,99541.00
2023-10-13T20:42:52.244Z,99538.50
2023-10-13T20:45:23.862Z,99537.97
2023-10-13T20:47:53.332Z,99531.38
2023-10-13T20:50:22.620Z,99533.41
2023-10-13T20:52:51.236Z,99541.25
2023-10-13T20:55:23.079Z,99534.63
2023-10-13T20:57:51.434Z,99534.63
2023-10-13T21:00:25.821Z,99532.75
2023-10-13T21:02:56.144Z,99530.75
2023-10-13T21:05:24.532Z,99541.63
2023-10-13T21:07:55.009Z,99528.56
2023-10-13T21:10:25.983Z,99532.59
2023-10-13T21:12:55.640Z,99542.63
2023-10-13T21:15:25.784Z,99537.03
2023-10-13T21:17:54.755Z,99548.06
2023-10-13T21:20:22.659Z,99555.06
2023-10-13T21:22:54.522Z,99552.34
2023-10-13T21:25:25.705Z,99553.66
2023-10-13T21:27:54.007Z,99560.91
2023-10-13T21:30:26.156Z,99553.31
2023-10-13T21:32:54.288Z,99555.03
2023-10-13T21:35:24.382Z,99559.94
2023-10-13T21:37:52.729Z,99550.28
2023-10-13T21:40:20.656Z,99555.78
2023-10-13T21:42:49.425Z,99560.88
2023-10-13T21:45:17.377Z,99571.75
2023-10-13T21:47:46.439Z,99558.16
2023-10-13T21:50:17.526Z,99555.44
2023-10-13T21:52:46.480Z,99562.91
2023-10-13T21:55:19.034Z,99575.00
2023-10-13T21:57:51.435Z,99570.09
2023-10-13T22:00:42.239Z,99586.41
2023-10-13T22:03:13.494Z,99577.91
2023-10-13T22:05:41.371Z,99584.53
2023-10-13T22:08:09.141Z,99584.69
2023-10-13T22:10:36.967Z,99589.63
2023-10-13T22:13:06.066Z,99597.66
2023-10-13T22:15:34.153Z,99598.50
2023-10-13T22:18:04.237Z,99597.78
2023-10-13T22:20:35.083Z,99594.88
2023-10-13T22:23:02.912Z,99605.28
2023-10-13T22:25:31.369Z,99602.72
2023-10-13T22:27:59.243Z,99596.75
2023-10-13T22:30:30.413Z,99591.00
2023-10-13T22:32:58.359Z,99602.19
2023-10-13T22:35:26.426Z,99603.72
2023-10-13T22:37:54.509Z,99606.44
2023-10-13T22:40:24.284Z,99604.44
2023-10-13T22:42:53.561Z,99596.44
2023-10-13T22:45:23.691Z,99595.56
2023-10-13T22:48:00.302Z,99597.59
2023-10-13T22:50:28.287Z,99607.63
2023-10-13T22:52:57.076Z,99624.81
2023-10-13T22:55:26.987Z,99627.53
2023-10-13T22:57:58.435Z,99609.81
2023-10-13T23:00:47.237Z,99606.97
2023-10-13T23:03:18.699Z,99616.59
2023-10-13T23:05:53.337Z,99611.78
2023-10-13T23:08:24.147Z,99602.25
2023-10-13T23:10:54.923Z,99591.38
2023-10-13T23:13:22.659Z,99593.38
2023-10-13T23:15:54.803Z,99589.63
2023-10-13T23:18:24.759Z,99592.00
2023-10-13T23:20:52.989Z,99575.50
2023-10-13T23:23:20.982Z,99575.66
2023-10-13T23:25:48.838Z,99578.00
2023-10-13T23:28:26.149Z,99586.00
2023-10-13T23:31:02.111Z,99573.06
2023-10-13T23:33:29.997Z,99577.47
2023-10-13T23:35:58.293Z,99565.41
2023-10-13T23:38:26.212Z,99570.84
2023-10-13T23:40:59.146Z,99558.41
2023-10-13T23:43:28.039Z,99553.31
2023-10-13T23:46:01.828Z,99549.88
2023-10-13T23:48:34.605Z,99560.06
2023-10-13T23:51:07.209Z,99553.09
2023-10-13T23:53:36.707Z,99548.00
2023-10-13T23:56:11.124Z,99549.16
2023-10-13T23:58:42.416Z,99546.75
